createdAt,value
2022-11-26T00:01:22.027Z,98700.00
2022-11-26T00:05:24.096Z,98693.00
2022-11-26T00:09:25.184Z,98692.00
2022-11-26T00:13:29.578Z,98698.00
2022-11-26T00:17:30.737Z,98696.00
2022-11-26T00:21:34.482Z,98706.00
2022-11-26T00:25:42.365Z,98723.00
2022-11-26T00:29:43.624Z,98716.00
2022-11-26T00:33:45.282Z,98724.00
2022-11-26T00:37:55.886Z,98732.00
2022-11-26T00:41:56.929Z,98732.00
2022-11-26T00:45:57.963Z,98735.00
2022-11-26T00:49:59.101Z,98738.00
2022-11-26T00:54:02.030Z,98741.00
2022-11-26T00:58:03.878Z,98739.00
2022-11-26T01:02:05.128Z,98745.00
2022-11-26T01:06:10.081Z,98758.00
2022-11-26T01:10:16.986Z,98754.00
2022-11-26T01:14:19.985Z,98756.00
2022-11-26T01:18:22.180Z,98771.00
2022-11-26T01:22:23.604Z,98770.00
2022-11-26T01:26:27.126Z,98765.00
2022-11-26T01:30:31.493Z,98774.00
2022-11-26T01:34:32.670Z,98780.00
2022-11-26T01:38:34.036Z,98779.00
2022-11-26T01:42:39.069Z,98787.00
2022-11-26T01:46:40.784Z,98799.00
2022-11-26T01:50:54.963Z,98803.00
2022-11-26T01:54:56.177Z,98810.00
2022-11-26T01:59:03.881Z,98823.00
2022-11-26T02:03:05.968Z,98832.00
2022-11-26T02:07:07.310Z,98832.00
2022-11-26T02:11:14.881Z,98834.00
2022-11-26T02:15:16.357Z,98839.00
2022-11-26T02:19:36.082Z,98846.00
2022-11-26T02:24:02.787Z,98849.00
2022-11-26T02:28:30.035Z,98852.00
2022-11-26T02:32:43.395Z,98854.00
2022-11-26T02:36:48.491Z,98855.00
2022-11-26T02:40:51.353Z,98856.00
2022-11-26T02:44:55.370Z,98860.00
2022-11-26T02:48:56.630Z,98868.00
2022-11-26T02:52:58.870Z,98866.00
2022-11-26T02:57:03.681Z,98873.00
2022-11-26T03:01:08.907Z,98877.00
2022-11-26T03:05:12.157Z,98874.00
2022-11-26T03:09:15.857Z,98879.00
2022-11-26T03:13:17.408Z,98881.00
2022-11-26T03:17:18.962Z,98883.00
2022-11-26T03:21:20.262Z,98894.00
2022-11-26T03:25:21.444Z,98896.00
2022-11-26T03:29:22.654Z,98898.00
2022-11-26T03:33:23.686Z,98885.00
2022-11-26T03:37:24.940Z,98895.00
2022-11-26T03:41:26.082Z,98893.00
2022-11-26T03:45:27.370Z,98891.00
2022-11-26T03:49:28.581Z,98888.00
2022-11-26T03:53:29.822Z,98881.00
2022-11-26T03:57:30.804Z,98883.00
2022-11-26T04:01:32.125Z,98885.00
2022-11-26T04:05:33.237Z,98874.00
2022-11-26T04:09:34.245Z,98886.00
2022-11-26T04:13:35.432Z,98892.00
2022-11-26T04:17:36.423Z,98890.00
2022-11-26T04:21:37.782Z,98911.00
2022-11-26T04:25:38.766Z,98885.00
2022-11-26T04:29:40.179Z,98891.00
2022-11-26T04:33:42.228Z,98893.00
2022-11-26T04:37:43.336Z,98898.00
2022-11-26T04:41:44.560Z,98901.00
2022-11-26T04:45:45.830Z,98905.00
2022-11-26T04:49:46.965Z,98917.00
2022-11-26T04:53:48.128Z,98913.00
2022-11-26T04:57:49.248Z,98920.00
2022-11-26T05:01:50.401Z,98941.00
2022-11-26T05:05:51.536Z,98938.00
2022-11-26T05:09:54.422Z,98937.00
2022-11-26T05:13:55.472Z,98941.00
2022-11-26T05:17:56.494Z,98951.00
2022-11-26T05:21:57.689Z,98948.00
2022-11-26T05:25:58.978Z,98992.00
2022-11-26T05:30:00.408Z,98962.00
2022-11-26T05:34:01.499Z,98971.00
2022-11-26T05:38:02.721Z,98967.00
2022-11-26T05:42:08.960Z,98961.00
2022-11-26T05:46:08.362Z,98969.00
2022-11-26T05:50:10.313Z,98977.00
2022-11-26T05:54:13.960Z,98983.00
2022-11-26T05:58:15.077Z,98986.00
2022-11-26T06:02:16.447Z,98988.00
2022-11-26T06:06:17.635Z,99002.00
2022-11-26T06:10:19.061Z,99009.00
2022-11-26T06:14:20.526Z,99011.00
2022-11-26T06:18:21.567Z,98898.00
2022-11-26T06:22:22.760Z,99011.00
2022-11-26T06:26:23.974Z,99006.00
2022-11-26T06:30:25.203Z,99019.00
2022-11-26T06:34:26.423Z,99024.00
2022-11-26T06:38:28.141Z,99029.00
2022-11-26T06:42:29.295Z,99044.00
2022-11-26T06:46:30.494Z,99054.00
2022-11-26T06:50:31.539Z,99062.00
2022-11-26T06:54:32.878Z,99075.00
2022-11-26T06:58:34.119Z,99069.00
2022-11-26T07:02:36.442Z,99071.00
2022-11-26T07:06:38.123Z,99082.00
2022-11-26T07:10:39.359Z,99077.00
2022-11-26T07:14:40.658Z,99093.00
2022-11-26T07:18:42.186Z,99101.00
2022-11-26T07:22:43.384Z,99099.00
2022-11-26T07:26:44.384Z,99101.00
2022-11-26T07:30:45.436Z,99101.00
2022-11-26T07:34:46.534Z,99105.00
2022-11-26T07:38:48.131Z,99123.00
2022-11-26T07:42:53.055Z,99121.00
2022-11-26T07:46:52.296Z,99022.00
2022-11-26T07:50:53.448Z,99125.00
2022-11-26T07:54:54.426Z,99120.00
2022-11-26T07:58:55.573Z,99111.00
2022-11-26T08:02:56.787Z,99116.00
2022-11-26T08:06:57.767Z,99132.00
2022-11-26T08:10:58.877Z,99167.00
2022-11-26T08:15:00.011Z,99130.00
2022-11-26T08:19:07.095Z,99134.00
2022-11-26T08:23:08.290Z,99123.00
2022-11-26T08:27:09.766Z,99132.00
2022-11-26T08:31:12.248Z,99137.00
2022-11-26T08:35:13.747Z,99129.00
2022-11-26T08:39:16.979Z,99132.00
2022-11-26T08:43:18.023Z,99138.00
2022-11-26T08:47:19.247Z,99134.00
2022-11-26T08:51:20.436Z,99128.00
2022-11-26T08:55:24.040Z,99133.00
2022-11-26T08:59:24.760Z,99193.00
2022-11-26T09:03:26.099Z,99144.00
2022-11-26T09:07:27.905Z,99150.00
2022-11-26T09:11:29.177Z,99159.00
2022-11-26T09:15:30.487Z,99167.00
2022-11-26T09:19:31.797Z,99170.00
2022-11-26T09:23:33.204Z,99177.00
2022-11-26T09:27:34.274Z,99184.00
2022-11-26T09:31:35.454Z,99177.00
2022-11-26T09:35:36.691Z,99189.00
2022-11-26T09:39:38.314Z,99181.00
2022-11-26T09:44:01.100Z,99190.00
2022-11-26T09:48:03.556Z,99181.00
2022-11-26T09:52:07.369Z,99179.00
2022-11-26T09:56:19.007Z,99181.00
2022-11-26T10:00:23.897Z,99182.00
2022-11-26T10:04:28.741Z,99179.00
2022-11-26T10:08:39.861Z,99162.00
2022-11-26T10:13:19.029Z,99169.00
2022-11-26T10:17:29.597Z,99170.00
2022-11-26T10:21:58.762Z,99163.00
2022-11-26T10:25:49.569Z,99166.00
2022-11-26T10:30:03.853Z,99173.00
2022-11-26T10:34:17.439Z,99172.00
2022-11-26T10:38:18.736Z,99167.00
2022-11-26T10:42:22.063Z,99163.00
2022-11-26T10:46:35.612Z,99156.00
2022-11-26T10:50:47.553Z,99172.00
2022-11-26T10:54:41.412Z,99155.00
2022-11-26T10:58:44.786Z,99161.00
2022-11-26T11:02:48.229Z,99153.00
2022-11-26T11:06:49.835Z,99154.00
2022-11-26T11:10:56.568Z,99158.00
2022-11-26T11:15:19.752Z,99155.00
2022-11-26T11:19:26.553Z,99152.00
2022-11-26T11:24:00.263Z,99151.00
2022-11-26T11:27:43.402Z,99152.00
2022-11-26T11:31:45.726Z,99130.00
2022-11-26T11:35:59.222Z,99152.00
2022-11-26T11:40:06.517Z,99150.00
2022-11-26T11:44:26.369Z,99154.00
2022-11-26T11:48:31.491Z,99146.00
2022-11-26T11:53:01.783Z,99155.00
2022-11-26T11:57:23.766Z,99145.00
2022-11-26T12:01:37.887Z,99143.00
2022-11-26T12:06:01.027Z,99134.00
2022-11-26T12:10:13.038Z,99140.00
2022-11-26T12:14:37.798Z,99142.00
2022-11-26T12:18:57.881Z,99040.00
2022-11-26T12:23:09.027Z,99142.00
2022-11-26T12:27:18.540Z,99146.00
2022-11-26T12:31:32.548Z,99147.00
2022-11-26T12:35:43.561Z,99145.00
2022-11-26T12:39:57.454Z,99147.00
2022-11-26T12:44:19.494Z,99147.00
2022-11-26T12:48:27.520Z,99158.00
2022-11-26T12:52:32.430Z,99157.00
2022-11-26T12:56:37.540Z,99168.00
2022-11-26T13:00:39.138Z,99059.00
2022-11-26T13:04:40.661Z,99156.00
2022-11-26T13:09:05.405Z,99165.00
2022-11-26T13:13:19.523Z,99163.00
2022-11-26T13:17:24.466Z,99172.00
2022-11-26T13:21:44.663Z,99166.00
2022-11-26T13:25:52.610Z,99162.00
2022-11-26T13:30:03.648Z,99056.00
2022-11-26T13:34:08.539Z,99155.00
2022-11-26T13:38:31.992Z,99172.00
2022-11-26T13:42:43.130Z,99168.00
2022-11-26T13:47:03.421Z,99160.00
2022-11-26T13:51:08.386Z,99164.00
2022-11-26T13:55:16.685Z,99173.00
2022-11-26T13:59:28.066Z,99181.00
2022-11-26T14:03:46.605Z,99175.00
2022-11-26T14:07:47.821Z,99169.00
2022-11-26T14:11:53.550Z,99169.00
2022-11-26T14:16:01.788Z,99169.00
2022-11-26T14:20:04.937Z,99174.00
2022-11-26T14:24:06.141Z,99174.00
2022-11-26T14:28:09.437Z,99176.00
2022-11-26T14:32:21.458Z,99178.00
2022-11-26T14:36:25.880Z,99178.00
2022-11-26T14:40:30.327Z,99173.00
2022-11-26T14:44:32.268Z,99174.00
2022-11-26T14:48:36.831Z,99175.00
2022-11-26T14:52:40.715Z,99182.00
2022-11-26T14:56:46.294Z,99170.00
2022-11-26T15:01:03.811Z,99163.00
2022-11-26T15:05:25.813Z,99156.00
2022-11-26T15:09:30.455Z,99157.00
2022-11-26T15:13:41.200Z,99155.00
2022-11-26T15:17:49.265Z,99152.00
2022-11-26T15:21:51.550Z,99150.00
2022-11-26T15:25:53.930Z,99144.00
2022-11-26T15:29:55.065Z,99137.00
2022-11-26T15:33:56.477Z,99141.00
2022-11-26T15:37:57.992Z,99141.00
2022-11-26T15:42:02.936Z,99141.00
2022-11-26T15:46:07.954Z,99140.00
2022-11-26T15:50:13.212Z,99136.00
2022-11-26T15:54:18.297Z,99156.00
2022-11-26T15:58:23.192Z,99160.00
2022-11-26T16:02:26.625Z,99167.00
2022-11-26T16:06:33.965Z,99163.00
2022-11-26T16:10:35.034Z,99165.00
2022-11-26T16:14:38.659Z,99162.00
2022-11-26T16:18:49.954Z,99149.00
2022-11-26T16:22:54.537Z,99144.00
2022-11-26T16:27:08.924Z,99142.00
2022-11-26T16:31:10.535Z,99154.00
2022-11-26T16:35:37.493Z,99147.00
2022-11-26T16:39:16.191Z,99145.00
2022-11-26T16:43:17.868Z,99160.00
2022-11-26T16:47:28.932Z,99158.00
2022-11-26T16:51:30.215Z,99152.00
2022-11-26T16:55:31.443Z,99163.00
2022-11-26T16:59:32.595Z,99156.00
2022-11-26T17:03:34.741Z,99167.00
2022-11-26T17:07:42.884Z,99161.00
2022-11-26T17:11:44.367Z,99157.00
2022-11-26T17:15:47.264Z,99160.00
2022-11-26T17:19:48.604Z,99150.00
2022-11-26T17:23:49.790Z,99144.00
2022-11-26T17:27:51.095Z,99163.00
2022-11-26T17:31:52.129Z,99139.00
2022-11-26T17:35:53.284Z,99142.00
2022-11-26T17:39:55.785Z,99141.00
2022-11-26T17:43:56.811Z,99148.00
2022-11-26T17:47:57.866Z,99147.00
2022-11-26T17:51:58.963Z,99156.00
2022-11-26T17:56:00.080Z,99160.00
2022-11-26T18:00:01.196Z,99169.00
2022-11-26T18:04:02.263Z,99169.00
2022-11-26T18:08:03.848Z,99164.00
2022-11-26T18:12:08.265Z,99161.00
2022-11-26T18:16:09.402Z,99174.00
2022-11-26T18:20:10.765Z,99022.00
2022-11-26T18:24:13.133Z,99167.00
2022-11-26T18:28:18.149Z,99162.00
2022-11-26T18:32:19.438Z,99154.00
2022-11-26T18:36:20.696Z,98996.00
2022-11-26T18:40:21.753Z,99160.00
2022-11-26T18:44:23.286Z,99137.00
2022-11-26T18:48:24.404Z,99154.00
2022-11-26T18:52:25.659Z,99138.00
2022-11-26T18:56:27.052Z,99137.00
2022-11-26T19:00:28.437Z,99147.00
2022-11-26T19:04:29.605Z,99145.00
2022-11-26T19:08:32.337Z,99139.00
2022-11-26T19:12:33.926Z,99142.00
2022-11-26T19:16:35.186Z,99133.00
2022-11-26T19:20:36.761Z,99122.00
2022-11-26T19:24:38.035Z,99112.00
2022-11-26T19:28:39.378Z,99111.00
2022-11-26T19:32:40.744Z,99102.00
2022-11-26T19:36:41.879Z,99149.00
2022-11-26T19:40:43.042Z,99104.00
2022-11-26T19:44:44.364Z,99115.00
2022-11-26T19:48:47.596Z,99121.00
2022-11-26T19:52:48.756Z,99121.00
2022-11-26T19:56:50.027Z,99116.00
2022-11-26T20:00:51.603Z,99112.00
2022-11-26T20:04:52.714Z,99120.00
2022-11-26T20:08:55.000Z,99112.00
2022-11-26T20:12:56.234Z,99107.00
2022-11-26T20:17:00.948Z,99100.00
2022-11-26T20:21:03.250Z,99121.00
2022-11-26T20:25:05.268Z,99124.00
2022-11-26T20:29:09.299Z,99112.00
2022-11-26T20:33:10.729Z,99113.00
2022-11-26T20:37:11.998Z,99110.00
2022-11-26T20:41:16.859Z,99116.00
2022-11-26T20:45:18.016Z,99107.00
2022-11-26T20:49:19.345Z,99114.00
2022-11-26T20:53:20.480Z,99111.00
2022-11-26T20:57:23.229Z,99117.00
2022-11-26T21:01:28.333Z,99116.00
2022-11-26T21:05:30.125Z,99133.00
2022-11-26T21:09:31.450Z,99133.00
2022-11-26T21:13:33.883Z,99133.00
2022-11-26T21:17:35.819Z,99147.00
2022-11-26T21:21:39.262Z,99144.00
2022-11-26T21:25:42.348Z,99124.00
2022-11-26T21:29:45.522Z,99123.00
2022-11-26T21:33:49.573Z,99131.00
2022-11-26T21:37:51.132Z,99123.00
2022-11-26T21:41:52.567Z,99130.00
2022-11-26T21:45:54.062Z,99128.00
2022-11-26T21:49:55.391Z,99110.00
2022-11-26T21:53:57.808Z,99107.00
2022-11-26T21:57:59.150Z,99139.00
2022-11-26T22:02:00.527Z,99096.00
2022-11-26T22:06:01.785Z,99090.00
2022-11-26T22:10:03.697Z,99088.00
2022-11-26T22:14:05.927Z,99103.00
2022-11-26T22:18:07.197Z,99088.00
2022-11-26T22:22:08.431Z,99100.00
2022-11-26T22:26:09.797Z,99104.00
2022-11-26T22:30:12.583Z,99095.00
2022-11-26T22:34:16.918Z,99102.00
2022-11-26T22:38:18.072Z,99097.00
2022-11-26T22:42:19.251Z,99081.00
2022-11-26T22:46:22.770Z,99098.00
2022-11-26T22:50:24.322Z,99091.00
2022-11-26T22:54:25.579Z,99076.00
2022-11-26T22:58:27.410Z,99069.00
2022-11-26T23:02:28.696Z,99062.00
2022-11-26T23:06:32.317Z,99054.00
2022-11-26T23:10:34.038Z,99034.00
2022-11-26T23:14:35.333Z,99023.00
2022-11-26T23:18:37.658Z,99016.00
2022-11-26T23:22:38.692Z,99015.00
2022-11-26T23:26:44.157Z,99013.00
2022-11-26T23:30:45.264Z,98996.00
2022-11-26T23:34:47.563Z,99005.00
2022-11-26T23:38:48.739Z,99008.00
2022-11-26T23:42:49.903Z,99003.00
2022-11-26T23:46:51.132Z,99010.00
2022-11-26T23:50:52.189Z,99006.00
2022-11-26T23:54:53.530Z,98996.00
2022-11-26T23:58:57.196Z,98990.00
